Time;durP1;ratioP1;P1;durP2;ratioP2;P2;SDS_P1;SDS_P2;PMS_P1;PMS_P2;Temp;Humidity;BMP_temperature;BMP_pressure;BME280_temperature;BME280_humidity;BME280_pressure;Samples;Min_cycle;Max_cycle;Signal;HPM_P1;HPM_P2
2022/12/16 00:01:41;;;;;;;5.80;3.42;;;;;;;1.30;100.00;101046.53;10385317;28;20038;-73
2022/12/16 00:06:42;;;;;;;24.40;5.10;;;;;;;1.31;100.00;101050.91;10400634;28;20038;-73
2022/12/16 00:11:42;;;;;;;5.50;2.63;;;;;;;1.37;100.00;101047.66;10365460;28;20037;-73
2022/12/16 00:16:42;;;;;;;8.10;4.18;;;;;;;1.39;100.00;101053.72;10383859;28;20034;-73
2022/12/16 00:21:43;;;;;;;4.25;3.15;;;;;;;1.26;100.00;101055.78;10380072;28;20030;-73
2022/12/16 00:26:43;;;;;;;9.13;3.75;;;;;;;1.11;100.00;101058.78;10376520;28;20364;-73
2022/12/16 00:31:46;;;;;;;3.78;3.38;;;;;;;1.08;100.00;101053.72;10390756;28;20037;-73
2022/12/16 00:36:47;;;;;;;8.18;3.05;;;;;;;0.99;100.00;101062.53;10375782;28;20568;-73
2022/12/16 00:41:47;;;;;;;13.70;4.65;;;;;;;0.97;100.00;101066.28;10374481;28;20049;-73
2022/12/16 00:46:48;;;;;;;2.65;2.45;;;;;;;0.93;100.00;101071.06;10375109;28;20121;-73
2022/12/16 00:51:48;;;;;;;6.07;3.33;;;;;;;0.92;100.00;101074.66;10375031;28;20034;-73
2022/12/16 00:56:48;;;;;;;8.80;3.30;;;;;;;0.82;100.00;101084.44;10375929;28;20042;-73
2022/12/16 01:01:49;;;;;;;5.97;2.78;;;;;;;0.79;100.00;101087.34;10375300;28;20034;-73
2022/12/16 01:06:49;;;;;;;6.07;3.08;;;;;;;0.78;100.00;101091.84;10375230;28;20034;-73
2022/12/16 01:11:49;;;;;;;5.50;3.75;;;;;;;0.72;100.00;101083.53;10374971;28;20497;-73
2022/12/16 01:16:50;;;;;;;3.85;3.55;;;;;;;0.65;100.00;101086.69;10377007;28;20436;-74
2022/12/16 01:21:50;;;;;;;7.10;4.47;;;;;;;0.59;100.00;101097.88;10375434;28;20034;-73
2022/12/16 01:26:51;;;;;;;12.15;4.35;;;;;;;0.61;100.00;101103.09;10374722;28;20389;-73
2022/12/16 01:31:51;;;;;;;9.88;4.80;;;;;;;0.55;100.00;101119.59;10375060;28;20026;-73
2022/12/16 01:36:51;;;;;;;7.07;5.28;;;;;;;0.44;100.00;101117.78;10373826;28;20184;-73
2022/12/16 01:41:52;;;;;;;4.90;4.03;;;;;;;0.34;100.00;101124.84;10374368;28;20482;-73
2022/12/16 01:46:54;;;;;;;5.50;5.07;;;;;;;0.31;100.00;101144.59;10373837;28;20034;-73
2022/12/16 01:51:57;;;;;;;12.75;3.47;;;;;;;0.27;100.00;101153.81;10390214;28;20474;-73
2022/12/16 01:57:01;;;;;;;11.95;4.22;;;;;;;0.17;100.00;101159.03;10390708;28;20369;-73
2022/12/16 02:02:02;;;;;;;7.38;4.13;;;;;;;0.16;100.00;101156.47;10377027;28;20042;-73
2022/12/16 02:07:02;;;;;;;5.65;2.88;;;;;;;0.17;100.00;101164.38;10396940;28;20030;-73
2022/12/16 02:12:18;;;;;;;7.63;4.35;;;;;;;0.12;100.00;101177.19;10381870;28;20069;-73
2022/12/16 02:17:54;;;;;;;18.83;4.17;;;;;;;0.08;100.00;101178.41;10382898;28;20488;-73
2022/12/16 02:23:03;;;;;;;5.78;3.42;;;;;;;0.08;100.00;101175.75;10380499;28;20432;-73
2022/12/16 02:28:22;;;;;;;15.68;3.47;;;;;;;-0.01;100.00;101187.13;10381478;28;20108;-73
2022/12/16 02:33:47;;;;;;;11.93;4.30;;;;;;;-0.09;100.00;101181.59;10382858;28;20136;-74
2022/12/16 02:38:53;;;;;;;14.75;2.67;;;;;;;-0.15;100.00;101195.38;10379234;28;20033;-73
2022/12/16 02:43:55;;;;;;;;;;;;;;;-0.17;100.00;101191.97;10379450;28;20433;-73
2022/12/16 02:48:55;;;;;;;7.15;3.53;;;;;;;-0.14;100.00;101197.91;10380669;28;19996;-73
2022/12/16 02:53:56;;;;;;;9.90;2.65;;;;;;;-0.17;100.00;101197.31;10380402;28;20556;-73
2022/12/16 02:59:05;;;;;;;12.25;3.90;;;;;;;-0.27;100.00;101211.31;10395601;28;20053;-73
2022/12/16 03:04:19;;;;;;;3.05;2.78;;;;;;;-0.30;100.00;101214.22;10380588;28;20072;-73
2022/12/16 03:09:25;;;;;;;7.38;2.50;;;;;;;-0.31;100.00;101217.88;10378013;28;20030;-73
2022/12/16 03:14:27;;;;;;;17.67;3.72;;;;;;;-0.36;100.00;101220.03;10393759;28;20080;-73
2022/12/16 03:19:29;;;;;;;3.70;2.58;;;;;;;-0.33;100.00;101227.78;10377639;28;20034;-73
2022/12/16 03:24:29;;;;;;;6.75;1.73;;;;;;;-0.41;100.00;101222.22;10377459;28;20379;-73
2022/12/16 03:29:54;;;;;;;9.90;2.83;;;;;;;-0.51;100.00;101224.72;10377256;28;20041;-73
2022/12/16 03:34:58;;;;;;;4.68;2.72;;;;;;;-0.51;100.00;101240.69;10376900;28;20509;-73
2022/12/16 03:40:00;;;;;;;6.22;2.70;;;;;;;-0.52;100.00;101240.78;10394332;28;20092;-73
2022/12/16 03:45:00;;;;;;;10.13;2.70;;;;;;;-0.51;100.00;101247.81;10377166;28;20030;-73
2022/12/16 03:50:01;;;;;;;2.60;2.40;;;;;;;-0.47;100.00;101243.97;10378888;28;20093;-73
2022/12/16 03:55:01;;;;;;;3.92;2.53;;;;;;;-0.52;100.00;101256.75;10378203;28;20105;-73
2022/12/16 04:00:03;;;;;;;3.03;2.33;;;;;;;-0.75;100.00;101255.84;10376670;28;20044;-73
2022/12/16 04:05:04;;;;;;;6.95;2.65;;;;;;;-0.84;100.00;101262.69;10377018;28;20065;-73
2022/12/16 04:10:05;;;;;;;6.30;2.47;;;;;;;-0.52;100.00;101270.91;10376850;28;20052;-73
2022/12/16 04:25:47;;;;;;;14.15;2.50;;;;;;;-0.59;100.00;101271.50;10379990;28;20038;-73
2022/12/16 04:30:47;;;;;;;11.55;2.90;;;;;;;-0.70;100.00;101277.63;10376306;28;20034;-73
